Time;durP1;ratioP1;P1;durP2;ratioP2;P2;SDS_P1;SDS_P2;PMS_P1;PMS_P2;Temp;Humidity;BMP_temperature;BMP_pressure;BME280_temperature;BME280_humidity;BME280_pressure;Samples;Min_cycle;Max_cycle;Signal;HPM_P1;HPM_P2
2022/10/18 00:01:45;;;;;;;14.55;6.30;;;;;;;13.82;68.55;102417.97;4950744;28;20019;-78
2022/10/18 00:04:11;;;;;;;15.88;5.88;;;;;;;13.85;68.23;102419.63;4951186;29;20051;-78
2022/10/18 00:06:37;;;;;;;12.40;5.10;;;;;;;13.71;68.08;102407.00;4950731;28;20043;-80
2022/10/18 00:09:03;;;;;;;14.55;5.53;;;;;;;13.81;68.12;102413.53;4950724;28;20087;-78
2022/10/18 00:11:28;;;;;;;11.90;5.60;;;;;;;13.76;68.14;102415.66;4951385;28;20023;-79
2022/10/18 00:13:55;;;;;;;10.02;5.18;;;;;;;13.71;68.19;102415.09;4951059;28;20065;-78
2022/10/18 00:16:20;;;;;;;18.65;6.15;;;;;;;13.54;68.57;102393.72;4950843;28;20062;-79
2022/10/18 00:18:47;;;;;;;16.30;5.75;;;;;;;13.63;68.72;102403.94;4950744;28;20031;-78
2022/10/18 00:21:17;;;;;;;12.88;6.05;;;;;;;13.61;69.06;102419.38;4950452;28;20020;-78
2022/10/18 00:23:45;;;;;;;15.57;5.85;;;;;;;13.60;69.00;102404.16;4953679;28;20035;-78
2022/10/18 00:26:14;;;;;;;12.93;6.68;;;;;;;13.56;69.21;102406.19;4954478;28;20027;-77
2022/10/18 00:28:40;;;;;;;9.32;5.68;;;;;;;13.55;69.77;102401.72;4954110;28;20472;-79
2022/10/18 00:31:16;;;;;;;9.18;5.53;;;;;;;13.52;69.92;102407.34;4954347;28;20038;-77
2022/10/18 00:33:43;;;;;;;11.57;5.80;;;;;;;13.54;69.94;102399.16;4954250;29;20027;-78
2022/10/18 00:36:09;;;;;;;9.77;5.32;;;;;;;13.31;70.06;102360.09;4954005;28;20439;-78
2022/10/18 00:38:36;;;;;;;13.82;6.43;;;;;;;13.53;70.33;102397.41;4935687;29;20035;-82
2022/10/18 00:41:02;;;;;;;98.30;11.80;;;;;;;13.53;70.15;102392.88;4953824;29;20402;-78
2022/10/18 00:43:27;;;;;;;42.15;8.32;;;;;;;13.51;69.99;102385.81;4954010;28;20042;-77
2022/10/18 00:45:52;;;;;;;13.38;6.60;;;;;;;13.53;70.00;102382.03;4954091;28;20062;-77
2022/10/18 00:48:19;;;;;;;14.15;7.28;;;;;;;13.49;69.68;102385.91;4953834;29;20452;-79
2022/10/18 00:50:46;;;;;;;11.50;5.97;;;;;;;13.32;69.89;102356.44;4954490;28;20023;-78
2022/10/18 00:53:16;;;;;;;15.57;6.30;;;;;;;13.39;69.93;102383.94;4953991;28;20038;-78
2022/10/18 00:55:41;;;;;;;8.57;6.45;;;;;;;13.33;70.46;102374.34;4954013;28;20059;-77
2022/10/18 00:58:08;;;;;;;16.55;7.70;;;;;;;13.21;70.54;102360.81;4963660;29;20033;-77
2022/10/18 01:00:38;;;;;;;16.00;7.88;;;;;;;13.30;70.57;102369.16;4972426;28;20031;-78
2022/10/18 01:03:04;;;;;;;23.00;8.57;;;;;;;13.28;70.52;102375.63;4971443;28;20050;-80
2022/10/18 01:05:30;;;;;;;14.38;7.30;;;;;;;13.03;70.59;102331.25;4960595;28;20162;-77
2022/10/18 01:08:31;;;;;;;15.25;8.10;;;;;;;13.22;70.96;102370.63;4955649;28;20027;-78
2022/10/18 01:11:35;;;;;;;13.07;7.90;;;;;;;13.21;71.06;102375.16;4957712;29;20102;-78
2022/10/18 01:14:25;;;;;;;18.80;7.53;;;;;;;13.17;71.04;102370.94;4894035;29;20075;-77
2022/10/18 01:16:59;;;;;;;18.10;8.30;;;;;;;13.15;71.46;102374.72;4894552;29;20048;-77
2022/10/18 01:20:07;;;;;;;11.77;7.07;;;;;;;13.13;71.74;102366.69;4893836;29;20135;-78
2022/10/18 01:22:43;;;;;;;20.45;7.72;;;;;;;12.91;72.08;102342.84;4893681;29;20528;-79
2022/10/18 01:25:46;;;;;;;16.80;7.82;;;;;;;13.04;72.33;102369.94;4893679;29;20548;-80
2022/10/18 01:28:14;;;;;;;9.25;7.53;;;;;;;13.02;72.30;102367.38;4893732;29;20593;-78
2022/10/18 01:30:55;;;;;;;13.00;8.32;;;;;;;13.02;72.90;102361.97;4893481;29;20112;-77
2022/10/18 01:33:34;;;;;;;17.10;8.60;;;;;;;13.00;72.91;102354.91;4893342;29;20137;-78
2022/10/18 01:36:09;;;;;;;12.65;8.57;;;;;;;12.79;73.26;102323.84;4893283;29;20037;-78
2022/10/18 01:38:37;;;;;;;17.77;8.27;;;;;;;12.94;73.38;102361.56;4893343;29;20045;-77
2022/10/18 01:41:06;;;;;;;20.40;10.02;;;;;;;12.88;73.88;102352.97;4893401;29;20080;-79
2022/10/18 01:43:32;;;;;;;26.10;7.47;;;;;;;12.97;73.73;102361.38;4861941;29;20055;-78
2022/10/18 01:45:59;;;;;;;12.10;7.78;;;;;;;12.98;74.20;102354.13;4893363;29;20088;-78
2022/10/18 01:48:25;;;;;;;10.15;7.28;;;;;;;12.82;74.56;102324.53;4893472;29;20076;-78
2022/10/18 01:50:52;;;;;;;12.52;7.55;;;;;;;13.06;74.53;102358.06;4918006;29;20035;-79
2022/10/18 01:53:32;;;;;;;15.40;7.78;;;;;;;13.09;74.28;102359.75;4950718;29;20036;-78
2022/10/18 01:56:17;;;;;;;17.38;8.45;;;;;;;13.13;74.13;102353.19;4952993;28;20086;-77
2022/10/18 01:59:06;;;;;;;13.18;7.72;;;;;;;13.17;74.29;102356.56;4952935;28;20390;-78
2022/10/18 02:01:45;;;;;;;15.77;7.43;;;;;;;13.21;74.03;102353.53;4952323;28;20034;-77
2022/10/18 02:04:21;;;;;;;13.15;6.85;;;;;;;13.20;73.71;102353.66;4952592;28;20546;-78
2022/10/18 02:06:52;;;;;;;17.83;8.02;;;;;;;13.21;73.69;102358.94;4952630;28;20494;-77
2022/10/18 02:09:22;;;;;;;15.80;7.50;;;;;;;13.26;74.00;102350.56;4952637;28;20086;-78
2022/10/18 02:11:51;;;;;;;10.10;7.28;;;;;;;13.24;73.81;102352.50;4952433;28;20035;-78
2022/10/18 02:14:18;;;;;;;16.30;7.72;;;;;;;13.27;74.11;102342.34;4973874;28;20042;-77
2022/10/18 02:16:51;;;;;;;35.33;19.58;;;;;;;13.31;73.97;102340.31;4974377;28;20027;-78
2022/10/18 02:19:40;;;;;;;12.32;7.90;;;;;;;13.38;73.72;102344.34;4949254;29;20035;-77
2022/10/18 02:22:09;;;;;;;14.43;7.03;;;;;;;13.39;73.66;102337.97;4952336;28;20093;-78
2022/10/18 02:24:42;;;;;;;18.00;7.35;;;;;;;13.41;73.87;102344.13;4952031;29;20028;-77
2022/10/18 02:27:09;;;;;;;16.65;7.93;;;;;;;13.48;73.46;102342.78;4951965;28;20609;-77
2022/10/18 02:29:35;;;;;;;11.02;7.13;;;;;;;13.32;73.45;102317.72;4952103;28;20517;-76
2022/10/18 02:32:38;;;;;;;12.02;7.05;;;;;;;13.52;73.46;102347.00;4952293;28;20125;-76
2022/10/18 02:35:09;;;;;;;13.93;6.97;;;;;;;13.49;73.49;102345.38;4952334;29;20559;-77
2022/10/18 02:37:39;;;;;;;12.90;6.15;;;;;;;13.52;73.38;102341.59;4952136;28;20035;-77
2022/10/18 02:40:07;;;;;;;14.43;6.13;;;;;;;13.57;73.19;102337.63;4952130;28;20059;-78
2022/10/18 02:42:45;;;;;;;11.63;6.90;;;;;;;13.60;73.06;102333.84;4951683;28;20106;-77
2022/10/18 02:45:12;;;;;;;31.30;8.10;;;;;;;13.60;73.00;102331.16;4951940;28;20463;-78
2022/10/18 02:47:37;;;;;;;13.07;7.25;;;;;;;13.40;73.01;102293.75;4952478;28;20067;-78
2022/10/18 02:50:03;;;;;;;9.57;6.85;;;;;;;13.41;72.62;102284.69;4952003;28;20055;-78
2022/10/18 02:52:28;;;;;;;13.77;7.43;;;;;;;13.65;72.71;102329.00;4951805;28;20035;-78
2022/10/18 02:54:54;;;;;;;14.40;7.30;;;;;;;13.61;72.97;102320.22;4951387;28;20055;-77
2022/10/18 02:57:19;;;;;;;13.05;7.32;;;;;;;13.62;72.45;102327.38;4952108;28;20453;-78
2022/10/18 02:59:45;;;;;;;13.40;7.20;;;;;;;13.61;72.56;102332.84;4951257;28;20152;-79
2022/10/18 03:02:10;;;;;;;11.68;7.95;;;;;;;13.59;72.41;102322.16;4951165;28;20027;-77
2022/10/18 03:04:36;;;;;;;13.65;7.85;;;;;;;13.55;72.46;102325.16;4952448;29;20459;-78
2022/10/18 03:07:01;;;;;;;15.98;7.13;;;;;;;13.59;72.56;102332.09;4956338;29;20471;-78
2022/10/18 03:09:26;;;;;;;36.75;8.70;;;;;;;13.60;72.53;102328.44;4952799;28;20024;-80
2022/10/18 03:11:52;;;;;;;26.30;6.70;;;;;;;13.58;72.61;102335.78;4952009;28;20035;-77
2022/10/18 03:14:17;;;;;;;10.70;7.00;;;;;;;13.57;72.71;102334.06;4951637;28;20035;-76
2022/10/18 03:16:43;;;;;;;23.23;7.40;;;;;;;13.55;72.87;102325.16;4951548;28;20023;-78
2022/10/18 03:19:08;;;;;;;17.45;7.63;;;;;;;13.51;73.18;102323.66;4951695;28;20038;-77
2022/10/18 03:21:33;;;;;;;14.45;8.63;;;;;;;13.44;73.43;102327.72;4951075;28;20034;-78
2022/10/18 03:23:59;;;;;;;15.25;7.88;;;;;;;13.43;73.50;102331.38;4951327;28;20032;-79
2022/10/18 03:26:24;;;;;;;13.02;8.27;;;;;;;13.43;73.87;102325.97;4951013;28;20028;-79
2022/10/18 03:28:50;;;;;;;22.27;8.45;;;;;;;13.41;73.95;102328.78;4968975;28;20578;-79
2022/10/18 03:31:15;;;;;;;19.17;8.25;;;;;;;13.34;73.60;102310.38;4970749;28;20058;-78
2022/10/18 03:33:41;;;;;;;20.95;9.27;;;;;;;13.36;73.83;102332.78;4968733;28;20031;-78
2022/10/18 03:36:06;;;;;;;15.00;8.30;;;;;;;13.30;73.83;102328.63;4950994;28;20074;-77
2022/10/18 03:38:32;;;;;;;34.08;11.10;;;;;;;13.28;73.74;102321.59;4950670;29;20031;-77
2022/10/18 03:40:57;;;;;;;29.70;9.30;;;;;;;13.27;74.15;102322.56;4950675;28;20030;-77
2022/10/18 03:43:23;;;;;;;22.83;9.55;;;;;;;13.26;73.93;102312.72;4950615;28;20035;-78
2022/10/18 03:45:48;;;;;;;48.42;9.75;;;;;;;13.16;74.19;102306.19;4950719;28;20506;-77
2022/10/18 03:48:14;;;;;;;17.92;8.93;;;;;;;13.05;74.48;102294.22;4950942;28;20475;-77
2022/10/18 03:50:39;;;;;;;15.45;9.07;;;;;;;13.13;74.57;102301.84;4951471;28;20093;-79
2022/10/18 03:53:05;;;;;;;24.42;9.75;;;;;;;13.06;74.63;102290.53;4950831;28;20038;-77
2022/10/18 03:55:30;;;;;;;17.10;9.00;;;;;;;13.01;75.04;102281.88;4950634;28;20117;-77
2022/10/18 03:57:56;;;;;;;21.17;10.13;;;;;;;13.24;75.08;102322.78;4948824;29;20034;-78
2022/10/18 04:00:21;;;;;;;28.58;9.50;;;;;;;13.16;75.57;102303.47;4950363;29;20539;-78
2022/10/18 04:02:47;;;;;;;70.85;11.85;;;;;;;13.24;75.51;102317.38;4950978;28;20471;-83
2022/10/18 04:05:13;;;;;;;21.15;8.52;;;;;;;13.24;75.73;102320.06;4950480;28;20118;-78
2022/10/18 04:07:38;;;;;;;40.38;10.55;;;;;;;13.29;75.78;102321.50;4950716;29;20032;-78
2022/10/18 04:10:04;;;;;;;36.53;10.57;;;;;;;13.30;75.83;102322.38;4950585;28;20134;-79
2022/10/18 04:12:30;;;;;;;17.85;8.68;;;;;;;13.26;75.79;102310.91;4950887;28;20034;-78
2022/10/18 04:14:55;;;;;;;36.55;11.05;;;;;;;13.35;75.96;102322.94;4950630;28;20602;-75
2022/10/18 04:17:21;;;;;;;68.53;23.52;;;;;;;13.19;75.88;102284.34;4951580;29;20126;-76
2022/10/18 04:19:46;;;;;;;21.38;10.32;;;;;;;13.46;75.70;102323.94;4950987;28;20113;-79
2022/10/18 04:22:12;;;;;;;66.88;12.65;;;;;;;13.48;75.85;102324.72;4950011;29;20023;-78
2022/10/18 04:24:38;;;;;;;62.55;11.73;;;;;;;13.48;75.81;102318.44;4951824;28;20110;-78
2022/10/18 04:27:05;;;;;;;25.80;11.57;;;;;;;13.50;75.96;102320.06;4951965;28;20024;-80
2022/10/18 04:29:30;;;;;;;170.98;16.58;;;;;;;13.50;75.53;102327.31;4951028;28;20074;-77
2022/10/18 04:31:56;;;;;;;53.30;11.75;;;;;;;13.53;75.79;102305.47;4951042;28;20051;-78
2022/10/18 04:34:21;;;;;;;94.75;16.83;;;;;;;13.53;75.94;102317.16;4951027;29;20118;-78
2022/10/18 04:36:47;;;;;;;43.80;11.85;;;;;;;13.34;75.46;102276.09;4951163;29;20023;-77
2022/10/18 04:39:12;;;;;;;29.30;11.63;;;;;;;13.51;75.58;102311.00;4952874;28;20056;-82
2022/10/18 04:41:38;;;;;;;41.67;12.50;;;;;;;13.33;75.70;102278.94;4950658;28;20059;-79
2022/10/18 04:44:04;;;;;;;139.65;17.48;;;;;;;13.55;75.86;102314.34;4966839;28;20019;-77
2022/10/18 04:46:29;;;;;;;145.80;18.48;;;;;;;13.51;76.24;102318.25;4970989;28;20063;-83
2022/10/18 04:48:55;;;;;;;335.17;34.13;;;;;;;13.36;76.22;102286.84;4970247;29;20051;-79
2022/10/18 04:51:20;;;;;;;67.15;16.10;;;;;;;13.58;76.13;102316.84;4950430;29;20054;-77
2022/10/18 04:53:46;;;;;;;32.33;12.48;;;;;;;13.43;75.87;102298.94;4948748;29;20035;-77
2022/10/18 04:56:11;;;;;;;90.95;16.48;;;;;;;13.59;75.67;102316.75;4949175;28;20070;-76
2022/10/18 04:58:36;;;;;;;61.47;13.73;;;;;;;13.61;75.65;102306.69;4948641;28;20050;-78
2022/10/18 05:01:06;;;;;;;117.57;21.13;;;;;;;13.68;75.36;102304.44;4948280;29;20050;-76
2022/10/18 05:03:32;;;;;;;72.18;14.90;;;;;;;13.77;75.29;102319.19;4948774;28;20037;-80
2022/10/18 05:05:57;;;;;;;63.47;14.80;;;;;;;13.62;75.11;102288.63;4930455;29;20039;-79
2022/10/18 05:08:23;;;;;;;39.63;12.98;;;;;;;13.71;75.03;102284.44;4947904;28;20430;-78
2022/10/18 05:10:48;;;;;;;84.28;20.13;;;;;;;13.81;74.92;102307.19;4951300;29;20423;-79
2022/10/18 05:13:14;;;;;;;164.68;20.52;;;;;;;13.78;75.33;102305.56;4952036;28;20470;-78
2022/10/18 05:15:39;;;;;;;67.45;15.63;;;;;;;13.78;75.20;102302.84;4952272;28;20042;-77
2022/10/18 05:18:05;;;;;;;61.97;14.50;;;;;;;13.63;75.20;102280.44;4952586;29;20027;-77
2022/10/18 05:20:30;;;;;;;38.70;12.90;;;;;;;13.83;75.44;102325.03;4953163;28;20043;-78
2022/10/18 05:22:57;;;;;;;48.67;13.43;;;;;;;13.84;75.71;102313.25;4953531;29;20031;-79
2022/10/18 05:25:22;;;;;;;36.40;12.30;;;;;;;13.81;75.67;102313.47;4952507;28;20039;-78
2022/10/18 05:27:48;;;;;;;542.30;66.10;;;;;;;13.86;76.11;102308.59;4955686;29;20487;-79
2022/10/18 05:30:13;;;;;;;149.10;21.73;;;;;;;13.88;76.25;102312.06;4952655;29;20593;-78
2022/10/18 05:32:39;;;;;;;45.00;12.80;;;;;;;13.78;76.38;102289.34;4952261;28;20504;-77
2022/10/18 05:35:05;;;;;;;67.03;13.20;;;;;;;14.01;76.86;102306.66;4952968;28;20533;-78
2022/10/18 05:37:30;;;;;;;98.15;18.00;;;;;;;14.11;76.92;102308.66;4948800;29;20068;-78
2022/10/18 05:39:55;;;;;;;48.70;13.23;;;;;;;14.04;77.00;102291.09;4949070;29;20075;-78
2022/10/18 05:42:21;;;;;;;229.63;27.45;;;;;;;14.26;77.20;102312.13;4948924;29;20083;-77
2022/10/18 05:44:46;;;;;;;264.90;33.72;;;;;;;14.34;77.23;102314.34;4917150;29;20570;-77
2022/10/18 05:47:12;;;;;;;49.30;13.88;;;;;;;14.34;77.41;102303.50;4948663;29;20039;-79
2022/10/18 05:49:37;;;;;;;35.38;10.65;;;;;;;14.53;77.15;102312.03;4949960;29;20035;-77
2022/10/18 05:52:03;;;;;;;46.80;14.38;;;;;;;14.43;77.07;102278.50;4948969;29;20515;-78
2022/10/18 05:54:28;;;;;;;35.17;12.07;;;;;;;14.78;76.71;102320.13;4947352;29;20539;-77
2022/10/18 05:56:54;;;;;;;59.50;13.57;;;;;;;14.82;76.40;102310.81;4930255;29;20032;-76
2022/10/18 05:59:19;;;;;;;52.70;11.55;;;;;;;14.71;76.08;102280.91;4940388;29;20057;-75
2022/10/18 06:01:45;;;;;;;30.48;11.65;;;;;;;15.01;75.98;102319.34;4954125;29;20035;-77
2022/10/18 06:04:10;;;;;;;34.42;12.15;;;;;;;15.10;75.76;102321.38;4948291;29;20064;-81
2022/10/18 06:06:36;;;;;;;41.47;12.75;;;;;;;15.02;75.80;102287.69;4929950;29;20899;-81
2022/10/18 06:09:03;;;;;;;142.90;21.02;;;;;;;15.34;75.55;102320.53;4917755;29;20131;-77
2022/10/18 06:11:29;;;;;;;224.93;28.08;;;;;;;15.24;75.02;102287.81;4913259;29;20464;-78
2022/10/18 06:13:58;;;;;;;150.95;20.50;;;;;;;15.53;74.20;102329.94;4911734;29;20063;-79
2022/10/18 06:16:25;;;;;;;49.85;11.57;;;;;;;15.38;74.34;102289.53;4914040;29;20038;-78
2022/10/18 06:18:53;;;;;;;23.58;10.60;;;;;;;15.59;74.27;102318.63;4911701;29;20186;-77
2022/10/18 06:21:19;;;;;;;38.08;10.65;;;;;;;15.50;73.54;102296.75;4912499;29;20568;-78
2022/10/18 06:23:53;;;;;;;42.90;9.88;;;;;;;15.70;73.22;102331.38;4912968;29;20047;-78
2022/10/18 06:26:19;;;;;;;24.33;10.25;;;;;;;15.78;73.26;102318.94;4913076;29;20180;-81
2022/10/18 06:28:45;;;;;;;33.22;10.48;;;;;;;15.84;73.26;102317.59;4919827;29;20032;-79
2022/10/18 06:31:12;;;;;;;32.40;10.55;;;;;;;15.85;73.29;102313.03;4931878;29;20535;-77
2022/10/18 06:33:37;;;;;;;22.05;9.45;;;;;;;15.68;73.28;102277.25;4932005;29;20039;-79
2022/10/18 06:36:06;;;;;;;25.60;10.38;;;;;;;15.74;73.71;102284.91;4930378;29;20035;-78
2022/10/18 06:38:32;;;;;;;38.90;10.13;;;;;;;15.97;73.81;102323.81;4931456;29;20027;-79
2022/10/18 06:40:58;;;;;;;15.43;7.88;;;;;;;15.75;73.51;102277.63;4932000;29;20042;-78
2022/10/18 06:43:24;;;;;;;82.57;11.35;;;;;;;16.08;73.50;102321.16;4932421;29;20115;-77
2022/10/18 06:45:50;;;;;;;20.10;8.70;;;;;;;16.13;73.75;102313.53;4931945;29;20551;-80
2022/10/18 06:48:17;;;;;;;62.55;28.77;;;;;;;16.20;73.95;102320.22;4932313;29;20044;-78
2022/10/18 06:50:49;;;;;;;33.70;17.35;;;;;;;16.31;73.87;102311.22;4931943;29;20070;-77
2022/10/18 06:53:15;;;;;;;;;;;;;;;16.41;73.38;102317.66;4931982;29;20140;-76
2022/10/18 06:55:40;;;;;;;21.33;10.07;;;;;;;16.46;73.48;102318.16;4942984;29;19926;-77
2022/10/18 06:58:05;;;;;;;25.02;6.70;;;;;;;16.59;72.93;102304.47;4951138;28;20174;-77
2022/10/18 07:00:31;;;;;;;41.65;8.18;;;;;;;16.66;72.73;102308.44;4950374;29;20483;-77
2022/10/18 07:02:57;;;;;;;12.35;7.32;;;;;;;16.74;72.19;102316.84;4950942;29;20027;-78
2022/10/18 07:05:22;;;;;;;28.05;14.25;;;;;;;16.74;72.30;102304.13;4950809;29;20035;-78
2022/10/18 07:07:48;;;;;;;12.40;7.38;;;;;;;16.66;71.52;102284.00;4950124;29;20074;-78
2022/10/18 07:10:13;;;;;;;21.67;7.47;;;;;;;16.83;71.57;102303.38;4949014;29;20043;-77
2022/10/18 07:12:38;;;;;;;19.33;7.63;;;;;;;17.02;70.88;102310.91;4967416;29;20090;-79
2022/10/18 07:15:04;;;;;;;34.65;8.32;;;;;;;17.05;70.91;102307.94;4972492;29;20046;-78
2022/10/18 07:17:30;;;;;;;21.15;7.80;;;;;;;17.15;70.67;102305.31;4971778;29;20035;-77
2022/10/18 07:19:55;;;;;;;29.52;10.38;;;;;;;17.07;70.49;102289.63;4951537;29;20053;-78
2022/10/18 07:22:21;;;;;;;19.77;7.35;;;;;;;17.25;70.51;102301.69;4950691;28;20046;-79
2022/10/18 07:24:46;;;;;;;20.77;7.40;;;;;;;17.31;70.28;102298.47;4950675;29;20534;-80
2022/10/18 07:27:12;;;;;;;39.58;7.10;;;;;;;17.46;69.57;102295.47;4950293;29;20479;-79
2022/10/18 07:29:38;;;;;;;62.97;9.30;;;;;;;17.61;68.66;102299.66;4950518;29;20498;-77
2022/10/18 07:32:04;;;;;;;30.27;8.07;;;;;;;17.63;68.31;102297.66;4949395;28;20035;-78
2022/10/18 07:34:29;;;;;;;73.20;20.92;;;;;;;17.65;68.04;102285.66;4950236;29;20431;-76
2022/10/18 07:36:55;;;;;;;580.28;72.07;;;;;;;17.69;67.56;102286.25;4950200;28;20035;-79
2022/10/18 07:39:20;;;;;;;73.35;12.75;;;;;;;17.66;67.62;102264.75;4950489;28;20042;-79
2022/10/18 07:41:46;;;;;;;30.10;8.43;;;;;;;17.98;67.44;102292.78;4950126;28;20055;-77
2022/10/18 07:44:11;;;;;;;12.75;5.60;;;;;;;18.21;66.47;102283.50;4950232;29;20031;-78
2022/10/18 07:46:37;;;;;;;26.13;4.70;;;;;;;18.40;64.83;102275.44;4950111;29;20110;-79
2022/10/18 07:49:03;;;;;;;55.28;6.80;;;;;;;18.48;61.91;102269.28;4949989;28;20055;-78
2022/10/18 07:51:31;;;;;;;32.95;6.00;;;;;;;18.53;60.95;102269.78;4950552;28;20118;-77
2022/10/18 07:53:57;;;;;;;30.13;4.80;;;;;;;18.76;60.05;102279.50;4949801;28;20518;-76
2022/10/18 07:56:23;;;;;;;12.82;3.50;;;;;;;18.76;59.34;102274.06;4950213;28;20075;-76
2022/10/18 07:58:54;;;;;;;16.15;3.75;;;;;;;18.89;58.01;102276.53;4949804;28;20122;-77
2022/10/18 08:01:21;;;;;;;12.68;3.38;;;;;;;18.81;58.22;102265.44;4950002;28;20851;-76
2022/10/18 08:03:46;;;;;;;26.30;3.85;;;;;;;19.02;57.68;102277.13;4915831;29;20145;-77
2022/10/18 08:06:13;;;;;;;17.40;3.60;;;;;;;19.07;56.89;102258.50;4949865;28;20083;-76
2022/10/18 08:08:40;;;;;;;30.63;4.07;;;;;;;19.31;55.51;102278.06;4949779;28;20035;-76
2022/10/18 08:11:10;;;;;;;9.00;2.38;;;;;;;19.46;55.19;102279.41;4947471;29;20101;-77
2022/10/18 08:13:35;;;;;;;9.02;3.03;;;;;;;19.45;54.57;102239.47;4949735;28;20085;-79
2022/10/18 08:16:07;;;;;;;36.78;4.80;;;;;;;19.73;55.02;102264.19;4949311;28;20114;-79
2022/10/18 08:18:33;;;;;;;27.77;5.10;;;;;;;19.77;54.35;102265.63;4950429;28;20036;-77
2022/10/18 08:21:00;;;;;;;21.98;4.40;;;;;;;19.75;54.54;102249.41;4950325;28;20046;-79
2022/10/18 08:23:25;;;;;;;217.63;10.85;;;;;;;19.78;54.73;102261.91;4949762;28;20162;-78
2022/10/18 08:25:51;;;;;;;23.90;2.97;;;;;;;19.76;54.90;102261.16;4963222;28;20165;-79
2022/10/18 08:28:16;;;;;;;15.65;4.78;;;;;;;19.78;55.27;102256.44;4969608;28;20029;-78
2022/10/18 08:30:42;;;;;;;32.22;15.02;;;;;;;20.04;55.09;102247.47;4969491;28;20058;-77
2022/10/18 08:33:08;;;;;;;16.38;3.60;;;;;;;20.25;54.45;102249.16;4952319;28;20403;-77
2022/10/18 08:35:33;;;;;;;16.00;3.78;;;;;;;20.08;54.53;102227.06;4949779;28;20476;-77
2022/10/18 08:37:59;;;;;;;38.75;4.35;;;;;;;20.34;54.38;102253.75;4948930;28;20505;-79
2022/10/18 08:40:26;;;;;;;9.70;2.95;;;;;;;20.42;53.63;102235.63;4949322;28;20434;-78
2022/10/18 08:43:06;;;;;;;22.23;3.40;;;;;;;20.30;53.49;102208.63;4949787;28;20498;-78
2022/10/18 08:45:36;;;;;;;29.30;5.90;;;;;;;20.63;53.67;102233.53;4952995;28;20027;-77
2022/10/18 08:48:04;;;;;;;33.03;5.03;;;;;;;20.44;52.90;102209.00;4952618;28;20466;-76
2022/10/18 08:50:34;;;;;;;70.82;5.38;;;;;;;20.54;53.10;102244.50;4953160;28;20419;-78
2022/10/18 08:53:04;;;;;;;13.48;4.07;;;;;;;20.27;53.63;102208.94;4953410;28;20038;-77
2022/10/18 08:55:37;;;;;;;8.07;3.08;;;;;;;20.34;53.33;102223.69;4952513;28;20062;-77
2022/10/18 08:58:25;;;;;;;14.20;4.90;;;;;;;20.57;53.17;102233.25;4952826;28;20031;-77
2022/10/18 09:01:09;;;;;;;21.50;4.28;;;;;;;20.58;52.32;102224.88;4952854;29;20081;-78
2022/10/18 09:03:58;;;;;;;97.38;6.95;;;;;;;20.64;52.79;102224.28;4952407;29;20444;-78
2022/10/18 09:06:46;;;;;;;51.20;3.90;;;;;;;20.83;52.57;102222.47;4911670;29;20112;-77
2022/10/18 09:09:24;;;;;;;17.15;3.13;;;;;;;20.81;51.49;102229.97;4911826;29;20036;-76
2022/10/18 09:12:08;;;;;;;39.28;4.13;;;;;;;20.86;50.87;102211.22;4911844;29;20080;-78
2022/10/18 09:15:00;;;;;;;113.30;8.63;;;;;;;20.64;51.64;102194.22;4911204;29;20158;-76
2022/10/18 09:17:31;;;;;;;18.05;5.70;;;;;;;20.85;51.65;102214.97;4911265;29;20131;-78
2022/10/18 09:20:02;;;;;;;16.05;3.90;;;;;;;21.06;49.84;102207.34;4911486;29;20052;-77
2022/10/18 09:22:47;;;;;;;8.52;2.20;;;;;;;21.23;49.91;102197.47;4911367;29;20047;-77
2022/10/18 09:25:56;;;;;;;20.13;3.47;;;;;;;21.33;49.64;102196.38;4911005;29;20044;-78
2022/10/18 09:29:03;;;;;;;16.05;3.50;;;;;;;21.41;48.11;102187.38;4821633;29;20122;-79
2022/10/18 09:31:45;;;;;;;8.57;2.30;;;;;;;21.35;48.43;102188.00;4837467;29;20467;-77
2022/10/18 09:34:38;;;;;;;42.85;5.70;;;;;;;21.42;47.86;102159.84;4822467;29;20507;-76
2022/10/18 09:37:10;;;;;;;354.73;23.38;;;;;;;21.36;47.90;102173.31;4836605;29;20125;-76
2022/10/18 09:39:37;;;;;;;;;;;;;;;21.34;48.15;102192.63;4845957;29;20041;-77
2022/10/18 09:42:38;;;;;;;17.80;3.78;;;;;;;21.46;49.04;102183.16;4848918;29;19920;-78
2022/10/18 09:45:29;;;;;;;12.40;2.95;;;;;;;21.77;48.41;102183.59;4885057;29;20037;-77
2022/10/18 09:48:10;;;;;;;11.13;2.75;;;;;;;21.81;46.54;102153.97;4873646;29;20041;-76
2022/10/18 09:50:57;;;;;;;9.50;3.35;;;;;;;22.20;45.26;102167.09;4873512;29;20052;-77
2022/10/18 09:53:32;;;;;;;23.08;4.80;;;;;;;22.46;45.83;102160.72;4873585;29;20034;-76
2022/10/18 09:56:04;;;;;;;26.50;5.10;;;;;;;22.34;45.74;102162.03;4872880;29;20181;-77
2022/10/18 09:58:47;;;;;;;22.20;7.57;;;;;;;22.23;45.81;102165.94;4873712;29;20082;-78
2022/10/18 10:01:17;;;;;;;52.33;10.75;;;;;;;21.82;45.89;102128.31;4874473;29;20033;-77
2022/10/18 10:03:42;;;;;;;10.90;2.28;;;;;;;21.88;45.31;102155.06;4949831;29;20118;-76
2022/10/18 10:06:10;;;;;;;27.90;4.32;;;;;;;21.86;45.58;102151.63;4951531;29;20103;-76
2022/10/18 10:08:41;;;;;;;42.45;8.88;;;;;;;21.92;45.71;102151.00;4951760;28;20035;-77
2022/10/18 10:11:33;;;;;;;64.78;6.40;;;;;;;21.83;46.13;102144.59;4951142;29;20031;-78
2022/10/18 10:14:11;;;;;;;;;;;;;;;21.92;45.99;102140.06;4951855;29;20031;-78
2022/10/18 10:16:47;;;;;;;155.43;13.45;;;;;;;22.03;46.27;102137.03;4951136;29;19906;-77
2022/10/18 10:19:27;;;;;;;125.95;17.00;;;;;;;21.92;46.47;102118.13;4951046;29;20176;-76
2022/10/18 10:22:00;;;;;;;18.88;3.63;;;;;;;22.32;45.69;102118.34;4951219;29;20027;-77
2022/10/18 10:24:36;;;;;;;33.03;4.53;;;;;;;22.55;44.10;102127.69;4951525;28;20403;-77
2022/10/18 10:27:05;;;;;;;53.92;4.60;;;;;;;22.62;43.64;102123.25;4952382;28;20060;-77
2022/10/18 10:29:46;;;;;;;16.05;2.90;;;;;;;22.78;43.17;102128.78;4951887;28;20035;-78
2022/10/18 10:32:17;;;;;;;24.92;3.45;;;;;;;22.91;43.08;102116.47;4952265;28;20041;-77
2022/10/18 10:34:43;;;;;;;47.03;4.83;;;;;;;22.77;43.79;102110.63;4952250;28;20122;-76
2022/10/18 10:37:34;;;;;;;5.85;2.50;;;;;;;22.84;44.27;102105.34;4952279;28;20114;-77
2022/10/18 10:40:12;;;;;;;37.55;4.30;;;;;;;22.89;44.32;102113.03;4952023;28;20043;-76
2022/10/18 10:43:08;;;;;;;22.70;3.00;;;;;;;22.48;43.80;102092.84;4951728;28;20407;-78
2022/10/18 10:45:51;;;;;;;31.90;3.97;;;;;;;22.56;44.24;102099.22;4893416;29;20037;-78
2022/10/18 10:48:19;;;;;;;104.05;8.45;;;;;;;22.48;44.84;102093.69;4892903;29;20044;-77
2022/10/18 10:50:50;;;;;;;17.20;4.43;;;;;;;22.16;45.69;102090.84;4892668;29;20056;-77
2022/10/18 10:53:27;;;;;;;78.32;10.32;;;;;;;22.27;45.75;102089.69;4901361;29;20036;-77
2022/10/18 10:55:56;;;;;;;58.72;5.65;;;;;;;22.21;45.45;102082.97;4909413;29;20125;-78
2022/10/18 10:58:22;;;;;;;52.17;4.50;;;;;;;22.21;46.13;102082.97;4910332;29;20049;-78
2022/10/18 11:00:48;;;;;;;25.83;4.25;;;;;;;22.44;46.36;102083.25;4894277;29;20033;-76
2022/10/18 11:03:22;;;;;;;18.67;2.92;;;;;;;22.21;47.13;102044.59;4892243;29;20123;-76
2022/10/18 11:05:56;;;;;;;10.15;3.38;;;;;;;22.17;47.73;102038.59;4892373;29;20039;-76
2022/10/18 11:08:38;;;;;;;86.10;7.78;;;;;;;22.42;48.48;102055.97;4861471;29;20052;-77
2022/10/18 11:11:26;;;;;;;66.55;5.53;;;;;;;22.43;49.13;102046.75;4892419;29;20040;-76
2022/10/18 11:14:17;;;;;;;47.20;6.35;;;;;;;22.30;49.69;102050.97;4892313;29;20041;-77
2022/10/18 11:16:52;;;;;;;81.22;7.30;;;;;;;21.90;50.23;102021.53;4891904;29;20072;-77
2022/10/18 11:19:45;;;;;;;104.07;23.58;;;;;;;21.96;51.65;102049.13;4892132;29;20037;-78
2022/10/18 11:22:17;;;;;;;67.43;20.92;;;;;;;21.77;51.04;102002.81;4909143;29;20046;-76
2022/10/18 11:24:43;;;;;;;110.03;9.57;;;;;;;21.86;51.13;102009.19;4951130;28;20516;-77
2022/10/18 11:27:40;;;;;;;87.70;6.25;;;;;;;22.21;52.61;102037.25;4951344;28;20027;-76
2022/10/18 11:30:24;;;;;;;65.20;5.18;;;;;;;22.46;52.16;102029.97;4951307;28;20044;-77